Chapleau, Canada
Current Conditions -  °F | °C
As of 6:00 AM on Wednesday 22 Oct 2014 (Local Time) from CYLD Reporting Station
Clear Clear  
Wind Chill: 23°   Ceiling: Unl
Heat Index: 23°   Visibility: 15mi
Dew Point: 21°   Wind: 0mph
Humidity: 93%   Direction: NA
Pressure: 30.37"   Gusts: NA
Location:  47.84°N, 83.4°W
Report Text: CYLD 221000Z 00000KT 15SM SKC M05/M06 A3037 RMK FROIN SLP310
Loading
Personal Weather Stations






























Interactive Weather Map
Tropical Storm Tracking
New forecast layout! Learn more

10-Day Weather Forecast

Advertisements
Track Severe Weather on mobile